Delta Virtual Airport Information Service

Louisville International Airport

ICAO: KSDF Country: United States
Latitude: 38.1741 Longitude: -85.7364
Latest Arrival : UPS1441 (1) (KCLE-KSDF) Latest Departure : UPS1144 (1) (KSDF-KBUF)


WX CaptureLIVE
Data provided by noaa.gov | Fetched at 23:24:19

METAR : KSDF 250356Z 12006KT 10SM FEW060 SCT130 23/19 A3001 RMK AO2 SLP159 T02280189

TAF : KSDF 250136Z 2502/2606 01012G22KT P6SM VCTS SCT050CB FM250230 VRB04KT P6SM BKN250 FM251700 17007KT P6SM BKN250 PROB30 2518/2524 5SM -TSRA BKN035CB FM260100 VRB03KT P6SM SCT250


Runway Data for KSDF
Data provided by openaviationdata.com

Runway ID Mag Var Hdg Length Elevation Surface ILS Freq ILS Id ILS Slope
11 -2 113° 7241 ft 501 ft Concrete -- -- --
17L -2 167° 8587 ft 501 ft Concrete 111.95 IPKI 3
17R -2 168° 10010 ft 501 ft Concrete 110.3 ISNU 3
29 -2 293° 7241 ft 501 ft Concrete 109.1 ILKS 3
35L -2 348° 10010 ft 501 ft Concrete 109.35 IRLI 3
35R -2 347° 8587 ft 501 ft Concrete 110.55 IJJM 3

Louisville International Airport, United States
Use only for reference purposes



Not for navigational purposes.